sensor_id;sensor_type;location;lat;lon;timestamp;P1;durP1;ratioP1;P2;durP2;ratioP2
57889;SDS011;43707;50.184;18.966;2023-07-20T00:02:12;3.20;;;1.10;;
57889;SDS011;43707;50.184;18.966;2023-07-20T00:04:37;3.70;;;1.30;;
57889;SDS011;43707;50.184;18.966;2023-07-20T00:07:03;1.40;;;1.20;;
57889;SDS011;43707;50.184;18.966;2023-07-20T00:09:31;2.70;;;1.50;;
57889;SDS011;43707;50.184;18.966;2023-07-20T00:11:57;2.30;;;1.30;;
57889;SDS011;43707;50.184;18.966;2023-07-20T00:14:24;1.50;;;0.80;;
57889;SDS011;43707;50.184;18.966;2023-07-20T00:16:50;0.60;;;0.60;;
57889;SDS011;43707;50.184;18.966;2023-07-20T00:19:24;2.50;;;1.00;;
57889;SDS011;43707;50.184;18.966;2023-07-20T00:21:51;1.60;;;1.00;;
57889;SDS011;43707;50.184;18.966;2023-07-20T00:24:17;0.90;;;0.60;;
57889;SDS011;43707;50.184;18.966;2023-07-20T00:26:43;2.80;;;1.00;;
57889;SDS011;43707;50.184;18.966;2023-07-20T00:29:11;1.30;;;0.90;;
57889;SDS011;43707;50.184;18.966;2023-07-20T00:31:37;1.70;;;0.70;;
57889;SDS011;43707;50.184;18.966;2023-07-20T00:34:03;1.90;;;0.60;;
57889;SDS011;43707;50.184;18.966;2023-07-20T00:36:29;1.00;;;0.80;;
57889;SDS011;43707;50.184;18.966;2023-07-20T00:38:54;1.00;;;0.60;;
57889;SDS011;43707;50.184;18.966;2023-07-20T00:41:20;0.40;;;0.40;;
57889;SDS011;43707;50.184;18.966;2023-07-20T00:43:45;2.20;;;0.80;;
57889;SDS011;43707;50.184;18.966;2023-07-20T00:46:11;1.00;;;0.50;;
57889;SDS011;43707;50.184;18.966;2023-07-20T00:48:36;2.10;;;0.40;;
57889;SDS011;43707;50.184;18.966;2023-07-20T00:51:02;0.40;;;0.30;;
57889;SDS011;43707;50.184;18.966;2023-07-20T00:53:28;0.60;;;0.50;;
57889;SDS011;43707;50.184;18.966;2023-07-20T00:55:53;0.50;;;0.40;;
57889;SDS011;43707;50.184;18.966;2023-07-20T00:58:19;1.20;;;0.40;;
57889;SDS011;43707;50.184;18.966;2023-07-20T01:00:45;1.40;;;0.30;;
57889;SDS011;43707;50.184;18.966;2023-07-20T01:03:10;0.60;;;0.40;;
57889;SDS011;43707;50.184;18.966;2023-07-20T01:05:38;0.80;;;0.40;;
57889;SDS011;43707;50.184;18.966;2023-07-20T01:08:10;0.30;;;0.20;;
57889;SDS011;43707;50.184;18.966;2023-07-20T01:10:43;0.30;;;0.30;;
57889;SDS011;43707;50.184;18.966;2023-07-20T01:13:10;0.40;;;0.40;;
57889;SDS011;43707;50.184;18.966;2023-07-20T01:15:39;0.30;;;0.30;;
57889;SDS011;43707;50.184;18.966;2023-07-20T01:18:04;0.40;;;0.40;;
57889;SDS011;43707;50.184;18.966;2023-07-20T01:20:30;0.90;;;0.30;;
57889;SDS011;43707;50.184;18.966;2023-07-20T01:33:57;0.70;;;0.30;;
57889;SDS011;43707;50.184;18.966;2023-07-20T01:36:24;0.20;;;0.20;;
57889;SDS011;43707;50.184;18.966;2023-07-20T01:38:52;1.00;;;0.50;;
57889;SDS011;43707;50.184;18.966;2023-07-20T01:41:18;1.30;;;0.40;;
57889;SDS011;43707;50.184;18.966;2023-07-20T01:43:43;1.00;;;0.50;;
57889;SDS011;43707;50.184;18.966;2023-07-20T01:46:09;2.30;;;0.50;;
57889;SDS011;43707;50.184;18.966;2023-07-20T01:48:34;1.50;;;0.80;;
57889;SDS011;43707;50.184;18.966;2023-07-20T01:51:00;0.60;;;0.40;;
57889;SDS011;43707;50.184;18.966;2023-07-20T01:53:25;0.60;;;0.60;;
57889;SDS011;43707;50.184;18.966;2023-07-20T01:55:53;1.00;;;0.70;;
57889;SDS011;43707;50.184;18.966;2023-07-20T01:58:20;0.50;;;0.50;;
57889;SDS011;43707;50.184;18.966;2023-07-20T02:00:45;2.80;;;0.40;;
57889;SDS011;43707;50.184;18.966;2023-07-20T02:03:11;0.80;;;0.30;;
57889;SDS011;43707;50.184;18.966;2023-07-20T02:05:37;0.40;;;0.40;;
57889;SDS011;43707;50.184;18.966;2023-07-20T02:08:03;0.40;;;0.30;;
57889;SDS011;43707;50.184;18.966;2023-07-20T02:10:28;0.60;;;0.50;;
57889;SDS011;43707;50.184;18.966;2023-07-20T02:12:54;0.40;;;0.30;;
57889;SDS011;43707;50.184;18.966;2023-07-20T02:15:19;0.40;;;0.30;;
57889;SDS011;43707;50.184;18.966;2023-07-20T02:17:46;1.20;;;0.50;;
57889;SDS011;43707;50.184;18.966;2023-07-20T02:20:11;0.50;;;0.40;;
57889;SDS011;43707;50.184;18.966;2023-07-20T02:22:37;1.60;;;0.40;;
57889;SDS011;43707;50.184;18.966;2023-07-20T02:25:04;0.50;;;0.30;;
57889;SDS011;43707;50.184;18.966;2023-07-20T02:27:30;0.30;;;0.20;;
57889;SDS011;43707;50.184;18.966;2023-07-20T02:29:55;1.50;;;0.40;;
57889;SDS011;43707;50.184;18.966;2023-07-20T02:32:21;1.20;;;0.50;;
57889;SDS011;43707;50.184;18.966;2023-07-20T02:34:47;0.50;;;0.40;;
57889;SDS011;43707;50.184;18.966;2023-07-20T02:37:12;0.70;;;0.30;;
57889;SDS011;43707;50.184;18.966;2023-07-20T02:39:38;0.70;;;0.50;;
57889;SDS011;43707;50.184;18.966;2023-07-20T02:42:04;1.40;;;0.50;;
57889;SDS011;43707;50.184;18.966;2023-07-20T02:44:30;0.60;;;0.40;;
57889;SDS011;43707;50.184;18.966;2023-07-20T02:46:55;0.80;;;0.40;;
57889;SDS011;43707;50.184;18.966;2023-07-20T02:49:21;1.00;;;0.40;;
57889;SDS011;43707;50.184;18.966;2023-07-20T02:51:46;0.20;;;0.20;;
57889;SDS011;43707;50.184;18.966;2023-07-20T02:54:12;0.30;;;0.30;;
57889;SDS011;43707;50.184;18.966;2023-07-20T02:56:37;0.50;;;0.30;;
57889;SDS011;43707;50.184;18.966;2023-07-20T02:59:03;1.00;;;0.30;;
57889;SDS011;43707;50.184;18.966;2023-07-20T03:01:29;0.50;;;0.50;;
57889;SDS011;43707;50.184;18.966;2023-07-20T03:03:57;0.60;;;0.50;;
57889;SDS011;43707;50.184;18.966;2023-07-20T03:06:22;5.90;;;0.40;;
57889;SDS011;43707;50.184;18.966;2023-07-20T03:08:48;0.40;;;0.40;;
57889;SDS011;43707;50.184;18.966;2023-07-20T03:11:17;1.30;;;0.50;;
57889;SDS011;43707;50.184;18.966;2023-07-20T03:13:43;0.40;;;0.30;;
57889;SDS011;43707;50.184;18.966;2023-07-20T03:16:10;0.70;;;0.50;;
57889;SDS011;43707;50.184;18.966;2023-07-20T03:18:37;1.70;;;0.50;;
57889;SDS011;43707;50.184;18.966;2023-07-20T03:21:03;0.40;;;0.30;;
57889;SDS011;43707;50.184;18.966;2023-07-20T03:23:30;0.70;;;0.30;;
57889;SDS011;43707;50.184;18.966;2023-07-20T03:25:56;0.70;;;0.40;;
57889;SDS011;43707;50.184;18.966;2023-07-20T03:28:21;0.40;;;0.30;;
57889;SDS011;43707;50.184;18.966;2023-07-20T03:30:46;1.30;;;0.50;;
57889;SDS011;43707;50.184;18.966;2023-07-20T03:33:18;0.60;;;0.50;;
57889;SDS011;43707;50.184;18.966;2023-07-20T03:35:43;1.40;;;0.40;;
57889;SDS011;43707;50.184;18.966;2023-07-20T03:38:09;0.50;;;0.40;;
57889;SDS011;43707;50.184;18.966;2023-07-20T03:40:34;0.30;;;0.30;;
57889;SDS011;43707;50.184;18.966;2023-07-20T03:42:59;0.40;;;0.30;;
57889;SDS011;43707;50.184;18.966;2023-07-20T03:45:25;1.60;;;0.70;;
57889;SDS011;43707;50.184;18.966;2023-07-20T03:47:50;0.40;;;0.40;;
57889;SDS011;43707;50.184;18.966;2023-07-20T03:50:16;0.30;;;0.30;;
57889;SDS011;43707;50.184;18.966;2023-07-20T03:52:41;0.40;;;0.30;;
57889;SDS011;43707;50.184;18.966;2023-07-20T03:55:07;0.60;;;0.50;;
57889;SDS011;43707;50.184;18.966;2023-07-20T03:57:32;0.80;;;0.50;;
57889;SDS011;43707;50.184;18.966;2023-07-20T03:59:59;3.30;;;0.60;;
57889;SDS011;43707;50.184;18.966;2023-07-20T04:02:24;0.50;;;0.40;;
57889;SDS011;43707;50.184;18.966;2023-07-20T04:04:50;3.20;;;0.60;;
57889;SDS011;43707;50.184;18.966;2023-07-20T04:07:16;1.10;;;0.40;;
57889;SDS011;43707;50.184;18.966;2023-07-20T04:09:41;1.10;;;0.70;;
57889;SDS011;43707;50.184;18.966;2023-07-20T04:12:07;0.40;;;0.40;;
57889;SDS011;43707;50.184;18.966;2023-07-20T04:14:32;0.40;;;0.30;;
57889;SDS011;43707;50.184;18.966;2023-07-20T04:16:58;3.90;;;0.40;;
57889;SDS011;43707;50.184;18.966;2023-07-20T04:19:25;0.50;;;0.50;;
57889;SDS011;43707;50.184;18.966;2023-07-20T04:21:51;0.30;;;0.30;;
57889;SDS011;43707;50.184;18.966;2023-07-20T04:24:16;2.90;;;0.60;;
57889;SDS011;43707;50.184;18.966;2023-07-20T04:26:42;2.30;;;0.40;;
57889;SDS011;43707;50.184;18.966;2023-07-20T04:29:07;0.90;;;0.50;;
57889;SDS011;43707;50.184;18.966;2023-07-20T04:31:33;1.90;;;0.40;;
57889;SDS011;43707;50.184;18.966;2023-07-20T04:33:59;1.00;;;0.40;;
57889;SDS011;43707;50.184;18.966;2023-07-20T04:36:24;0.40;;;0.40;;
57889;SDS011;43707;50.184;18.966;2023-07-20T04:38:50;1.00;;;0.50;;
57889;SDS011;43707;50.184;18.966;2023-07-20T04:41:15;0.60;;;0.50;;
57889;SDS011;43707;50.184;18.966;2023-07-20T04:43:41;1.10;;;0.70;;
57889;SDS011;43707;50.184;18.966;2023-07-20T04:46:08;0.90;;;0.50;;
57889;SDS011;43707;50.184;18.966;2023-07-20T04:48:34;0.40;;;0.40;;
57889;SDS011;43707;50.184;18.966;2023-07-20T04:50:59;0.70;;;0.50;;
57889;SDS011;43707;50.184;18.966;2023-07-20T04:53:25;2.50;;;0.70;;
57889;SDS011;43707;50.184;18.966;2023-07-20T04:55:50;0.40;;;0.40;;
57889;SDS011;43707;50.184;18.966;2023-07-20T04:58:16;2.50;;;0.60;;
57889;SDS011;43707;50.184;18.966;2023-07-20T05:00:46;0.90;;;0.70;;
57889;SDS011;43707;50.184;18.966;2023-07-20T05:03:12;0.50;;;0.50;;
57889;SDS011;43707;50.184;18.966;2023-07-20T05:05:38;0.80;;;0.50;;
57889;SDS011;43707;50.184;18.966;2023-07-20T05:08:04;0.70;;;0.50;;
57889;SDS011;43707;50.184;18.966;2023-07-20T05:10:29;0.70;;;0.50;;
57889;SDS011;43707;50.184;18.966;2023-07-20T05:12:55;1.50;;;0.70;;
57889;SDS011;43707;50.184;18.966;2023-07-20T05:15:20;0.50;;;0.50;;
57889;SDS011;43707;50.184;18.966;2023-07-20T05:17:45;0.40;;;0.40;;
57889;SDS011;43707;50.184;18.966;2023-07-20T05:20:13;2.90;;;0.70;;
57889;SDS011;43707;50.184;18.966;2023-07-20T05:22:39;1.00;;;0.70;;
57889;SDS011;43707;50.184;18.966;2023-07-20T05:25:06;3.00;;;0.60;;
57889;SDS011;43707;50.184;18.966;2023-07-20T05:27:33;1.40;;;0.30;;
57889;SDS011;43707;50.184;18.966;2023-07-20T05:29:59;2.80;;;0.90;;
57889;SDS011;43707;50.184;18.966;2023-07-20T05:32:24;0.70;;;0.40;;
57889;SDS011;43707;50.184;18.966;2023-07-20T05:34:54;1.20;;;0.50;;
57889;SDS011;43707;50.184;18.966;2023-07-20T05:37:20;3.10;;;0.40;;
57889;SDS011;43707;50.184;18.966;2023-07-20T05:39:45;0.30;;;0.30;;
57889;SDS011;43707;50.184;18.966;2023-07-20T05:42:11;0.60;;;0.40;;
57889;SDS011;43707;50.184;18.966;2023-07-20T05:44:37;0.60;;;0.40;;
57889;SDS011;43707;50.184;18.966;2023-07-20T05:47:02;2.60;;;0.40;;
57889;SDS011;43707;50.184;18.966;2023-07-20T05:49:28;0.30;;;0.30;;
57889;SDS011;43707;50.184;18.966;2023-07-20T05:51:54;1.10;;;0.40;;
57889;SDS011;43707;50.184;18.966;2023-07-20T05:54:21;2.10;;;0.70;;
57889;SDS011;43707;50.184;18.966;2023-07-20T05:56:46;5.70;;;0.50;;
57889;SDS011;43707;50.184;18.966;2023-07-20T05:59:12;11.60;;;0.60;;
57889;SDS011;43707;50.184;18.966;2023-07-20T06:01:38;1.30;;;0.40;;
57889;SDS011;43707;50.184;18.966;2023-07-20T06:04:03;1.60;;;0.40;;
57889;SDS011;43707;50.184;18.966;2023-07-20T06:06:29;0.30;;;0.30;;
57889;SDS011;43707;50.184;18.966;2023-07-20T06:08:54;0.50;;;0.40;;
57889;SDS011;43707;50.184;18.966;2023-07-20T06:11:20;0.30;;;0.30;;
57889;SDS011;43707;50.184;18.966;2023-07-20T06:13:45;0.60;;;0.60;;
57889;SDS011;43707;50.184;18.966;2023-07-20T06:16:11;0.50;;;0.40;;
57889;SDS011;43707;50.184;18.966;2023-07-20T06:18:36;0.40;;;0.40;;
57889;SDS011;43707;50.184;18.966;2023-07-20T06:21:02;0.40;;;0.40;;
57889;SDS011;43707;50.184;18.966;2023-07-20T06:23:27;0.60;;;0.50;;
57889;SDS011;43707;50.184;18.966;2023-07-20T06:25:53;0.40;;;0.40;;
57889;SDS011;43707;50.184;18.966;2023-07-20T06:28:18;0.40;;;0.40;;
57889;SDS011;43707;50.184;18.966;2023-07-20T06:30:44;0.40;;;0.40;;
57889;SDS011;43707;50.184;18.966;2023-07-20T06:33:09;0.50;;;0.50;;
57889;SDS011;43707;50.184;18.966;2023-07-20T06:35:34;0.80;;;0.40;;
57889;SDS011;43707;50.184;18.966;2023-07-20T06:38:03;1.90;;;0.50;;
57889;SDS011;43707;50.184;18.966;2023-07-20T06:40:28;0.40;;;0.30;;
57889;SDS011;43707;50.184;18.966;2023-07-20T06:42:55;0.40;;;0.40;;
57889;SDS011;43707;50.184;18.966;2023-07-20T06:45:20;0.30;;;0.30;;
57889;SDS011;43707;50.184;18.966;2023-07-20T06:47:45;0.30;;;0.30;;
57889;SDS011;43707;50.184;18.966;2023-07-20T06:50:11;0.80;;;0.40;;
57889;SDS011;43707;50.184;18.966;2023-07-20T06:52:37;7.40;;;0.40;;
57889;SDS011;43707;50.184;18.966;2023-07-20T06:55:02;0.40;;;0.30;;
57889;SDS011;43707;50.184;18.966;2023-07-20T06:57:29;0.80;;;0.30;;
57889;SDS011;43707;50.184;18.966;2023-07-20T06:59:54;0.20;;;0.20;;
57889;SDS011;43707;50.184;18.966;2023-07-20T07:02:20;0.30;;;0.20;;
57889;SDS011;43707;50.184;18.966;2023-07-20T07:04:45;0.20;;;0.20;;
57889;SDS011;43707;50.184;18.966;2023-07-20T07:07:14;0.10;;;0.10;;
57889;SDS011;43707;50.184;18.966;2023-07-20T07:09:40;0.20;;;0.20;;
57889;SDS011;43707;50.184;18.966;2023-07-20T07:12:06;0.10;;;0.10;;
57889;SDS011;43707;50.184;18.966;2023-07-20T07:14:32;0.10;;;0.10;;
57889;SDS011;43707;50.184;18.966;2023-07-20T07:16:57;0.20;;;0.20;;
57889;SDS011;43707;50.184;18.966;2023-07-20T07:19:23;0.10;;;0.10;;
57889;SDS011;43707;50.184;18.966;2023-07-20T07:21:48;0.10;;;0.10;;
57889;SDS011;43707;50.184;18.966;2023-07-20T07:24:14;0.30;;;0.10;;
57889;SDS011;43707;50.184;18.966;2023-07-20T07:26:39;0.20;;;0.00;;
57889;SDS011;43707;50.184;18.966;2023-07-20T07:29:05;0.00;;;0.00;;
57889;SDS011;43707;50.184;18.966;2023-07-20T07:31:33;0.10;;;0.10;;
57889;SDS011;43707;50.184;18.966;2023-07-20T07:34:01;0.10;;;0.10;;
57889;SDS011;43707;50.184;18.966;2023-07-20T07:36:27;0.00;;;0.00;;
57889;SDS011;43707;50.184;18.966;2023-07-20T07:38:53;0.10;;;0.10;;
57889;SDS011;43707;50.184;18.966;2023-07-20T07:41:18;0.70;;;0.10;;
57889;SDS011;43707;50.184;18.966;2023-07-20T07:43:44;0.10;;;0.10;;
57889;SDS011;43707;50.184;18.966;2023-07-20T07:46:09;0.10;;;0.10;;
57889;SDS011;43707;50.184;18.966;2023-07-20T07:48:34;3.50;;;0.00;;
57889;SDS011;43707;50.184;18.966;2023-07-20T07:51:00;6.20;;;0.10;;
57889;SDS011;43707;50.184;18.966;2023-07-20T07:53:25;0.10;;;0.10;;
57889;SDS011;43707;50.184;18.966;2023-07-20T07:55:53;0.10;;;0.10;;
57889;SDS011;43707;50.184;18.966;2023-07-20T07:58:20;0.00;;;0.00;;
57889;SDS011;43707;50.184;18.966;2023-07-20T08:00:45;0.10;;;0.10;;
57889;SDS011;43707;50.184;18.966;2023-07-20T08:03:13;0.40;;;0.20;;
57889;SDS011;43707;50.184;18.966;2023-07-20T08:05:38;0.30;;;0.20;;
57889;SDS011;43707;50.184;18.966;2023-07-20T08:08:04;0.10;;;0.10;;
57889;SDS011;43707;50.184;18.966;2023-07-20T08:10:30;3.00;;;0.40;;
57889;SDS011;43707;50.184;18.966;2023-07-20T08:12:55;0.90;;;0.10;;
57889;SDS011;43707;50.184;18.966;2023-07-20T08:15:21;0.50;;;0.20;;
57889;SDS011;43707;50.184;18.966;2023-07-20T08:17:46;3.30;;;0.30;;
57889;SDS011;43707;50.184;18.966;2023-07-20T08:20:13;0.70;;;0.40;;
57889;SDS011;43707;50.184;18.966;2023-07-20T08:22:41;0.30;;;0.30;;
57889;SDS011;43707;50.184;18.966;2023-07-20T08:25:07;0.40;;;0.40;;
57889;SDS011;43707;50.184;18.966;2023-07-20T08:27:33;0.30;;;0.20;;
57889;SDS011;43707;50.184;18.966;2023-07-20T08:29:59;1.00;;;0.30;;
57889;SDS011;43707;50.184;18.966;2023-07-20T08:32:25;0.30;;;0.20;;
57889;SDS011;43707;50.184;18.966;2023-07-20T08:34:50;0.40;;;0.20;;
57889;SDS011;43707;50.184;18.966;2023-07-20T08:37:16;0.40;;;0.30;;
57889;SDS011;43707;50.184;18.966;2023-07-20T08:39:41;0.30;;;0.30;;
57889;SDS011;43707;50.184;18.966;2023-07-20T08:42:06;0.30;;;0.30;;
57889;SDS011;43707;50.184;18.966;2023-07-20T08:44:33;0.30;;;0.30;;
57889;SDS011;43707;50.184;18.966;2023-07-20T08:47:02;0.40;;;0.40;;
57889;SDS011;43707;50.184;18.966;2023-07-20T08:49:31;0.70;;;0.50;;
57889;SDS011;43707;50.184;18.966;2023-07-20T08:51:57;0.60;;;0.50;;
57889;SDS011;43707;50.184;18.966;2023-07-20T08:54:23;0.80;;;0.40;;
57889;SDS011;43707;50.184;18.966;2023-07-20T08:56:49;0.90;;;0.50;;
57889;SDS011;43707;50.184;18.966;2023-07-20T08:59:16;0.40;;;0.40;;
57889;SDS011;43707;50.184;18.966;2023-07-20T09:01:43;0.50;;;0.50;;
57889;SDS011;43707;50.184;18.966;2023-07-20T09:04:09;0.40;;;0.40;;
57889;SDS011;43707;50.184;18.966;2023-07-20T09:06:35;0.30;;;0.30;;
57889;SDS011;43707;50.184;18.966;2023-07-20T09:09:00;0.70;;;0.40;;
57889;SDS011;43707;50.184;18.966;2023-07-20T09:11:27;0.50;;;0.50;;
57889;SDS011;43707;50.184;18.966;2023-07-20T09:14:02;0.50;;;0.30;;
57889;SDS011;43707;50.184;18.966;2023-07-20T09:16:31;0.40;;;0.40;;
57889;SDS011;43707;50.184;18.966;2023-07-20T09:19:00;0.30;;;0.30;;
57889;SDS011;43707;50.184;18.966;2023-07-20T09:21:28;0.70;;;0.40;;
57889;SDS011;43707;50.184;18.966;2023-07-20T09:23:56;0.40;;;0.40;;
57889;SDS011;43707;50.184;18.966;2023-07-20T09:26:22;0.60;;;0.50;;
57889;SDS011;43707;50.184;18.966;2023-07-20T09:28:51;0.90;;;0.40;;
57889;SDS011;43707;50.184;18.966;2023-07-20T09:31:18;0.40;;;0.40;;
57889;SDS011;43707;50.184;18.966;2023-07-20T09:33:45;0.40;;;0.30;;
57889;SDS011;43707;50.184;18.966;2023-07-20T09:36:10;0.50;;;0.50;;
57889;SDS011;43707;50.184;18.966;2023-07-20T09:38:42;0.70;;;0.50;;
57889;SDS011;43707;50.184;18.966;2023-07-20T09:41:08;0.50;;;0.50;;
57889;SDS011;43707;50.184;18.966;2023-07-20T09:43:38;1.10;;;0.40;;
57889;SDS011;43707;50.184;18.966;2023-07-20T09:46:04;0.40;;;0.40;;
57889;SDS011;43707;50.184;18.966;2023-07-20T09:48:30;0.40;;;0.40;;
57889;SDS011;43707;50.184;18.966;2023-07-20T09:50:55;0.40;;;0.40;;
57889;SDS011;43707;50.184;18.966;2023-07-20T09:53:22;0.50;;;0.50;;
57889;SDS011;43707;50.184;18.966;2023-07-20T09:55:49;0.80;;;0.50;;
57889;SDS011;43707;50.184;18.966;2023-07-20T09:58:15;0.40;;;0.40;;
57889;SDS011;43707;50.184;18.966;2023-07-20T10:00:42;1.00;;;0.50;;
57889;SDS011;43707;50.184;18.966;2023-07-20T10:03:13;0.80;;;0.50;;
57889;SDS011;43707;50.184;18.966;2023-07-20T10:05:41;1.00;;;0.90;;
57889;SDS011;43707;50.184;18.966;2023-07-20T10:08:11;0.50;;;0.50;;
57889;SDS011;43707;50.184;18.966;2023-07-20T10:10:38;1.00;;;0.70;;
57889;SDS011;43707;50.184;18.966;2023-07-20T10:13:09;2.20;;;0.90;;
57889;SDS011;43707;50.184;18.966;2023-07-20T10:15:53;7.50;;;0.80;;
57889;SDS011;43707;50.184;18.966;2023-07-20T10:18:30;1.00;;;0.70;;
57889;SDS011;43707;50.184;18.966;2023-07-20T10:21:00;0.90;;;0.70;;
57889;SDS011;43707;50.184;18.966;2023-07-20T10:23:26;2.70;;;0.80;;
57889;SDS011;43707;50.184;18.966;2023-07-20T10:25:54;0.50;;;0.50;;
57889;SDS011;43707;50.184;18.966;2023-07-20T10:28:19;1.00;;;0.90;;
57889;SDS011;43707;50.184;18.966;2023-07-20T10:30:45;0.70;;;0.60;;
57889;SDS011;43707;50.184;18.966;2023-07-20T10:33:11;0.60;;;0.60;;
57889;SDS011;43707;50.184;18.966;2023-07-20T10:35:56;1.00;;;0.80;;
57889;SDS011;43707;50.184;18.966;2023-07-20T10:41:19;0.50;;;0.50;;
57889;SDS011;43707;50.184;18.966;2023-07-20T10:43:45;1.40;;;0.90;;
57889;SDS011;43707;50.184;18.966;2023-07-20T10:46:11;0.80;;;0.80;;
57889;SDS011;43707;50.184;18.966;2023-07-20T10:48:58;1.60;;;1.20;;
57889;SDS011;43707;50.184;18.966;2023-07-20T10:51:24;1.10;;;1.00;;
57889;SDS011;43707;50.184;18.966;2023-07-20T10:53:49;3.90;;;2.70;;
57889;SDS011;43707;50.184;18.966;2023-07-20T10:56:19;1.70;;;1.60;;
57889;SDS011;43707;50.184;18.966;2023-07-20T10:58:46;2.70;;;2.30;;
57889;SDS011;43707;50.184;18.966;2023-07-20T11:01:15;2.50;;;2.10;;
57889;SDS011;43707;50.184;18.966;2023-07-20T11:03:42;1.50;;;1.40;;
57889;SDS011;43707;50.184;18.966;2023-07-20T11:08:49;2.10;;;1.50;;
57889;SDS011;43707;50.184;18.966;2023-07-20T11:11:21;4.60;;;2.10;;
57889;SDS011;43707;50.184;18.966;2023-07-20T11:13:53;1.10;;;1.00;;
57889;SDS011;43707;50.184;18.966;2023-07-20T11:16:38;1.20;;;1.10;;
57889;SDS011;43707;50.184;18.966;2023-07-20T11:21:43;0.80;;;0.80;;
57889;SDS011;43707;50.184;18.966;2023-07-20T11:24:10;1.40;;;0.60;;
57889;SDS011;43707;50.184;18.966;2023-07-20T11:29:06;0.60;;;0.60;;
57889;SDS011;43707;50.184;18.966;2023-07-20T11:31:34;0.30;;;0.30;;
57889;SDS011;43707;50.184;18.966;2023-07-20T11:34:01;0.50;;;0.50;;
57889;SDS011;43707;50.184;18.966;2023-07-20T11:36:26;0.70;;;0.30;;
57889;SDS011;43707;50.184;18.966;2023-07-20T11:38:51;0.70;;;0.50;;
57889;SDS011;43707;50.184;18.966;2023-07-20T11:41:17;0.40;;;0.40;;
57889;SDS011;43707;50.184;18.966;2023-07-20T11:43:42;0.40;;;0.30;;
57889;SDS011;43707;50.184;18.966;2023-07-20T11:46:08;0.30;;;0.30;;
57889;SDS011;43707;50.184;18.966;2023-07-20T11:48:34;0.20;;;0.20;;
57889;SDS011;43707;50.184;18.966;2023-07-20T11:50:59;0.30;;;0.30;;
57889;SDS011;43707;50.184;18.966;2023-07-20T11:53:25;0.30;;;0.30;;
57889;SDS011;43707;50.184;18.966;2023-07-20T11:55:51;0.50;;;0.50;;
57889;SDS011;43707;50.184;18.966;2023-07-20T11:58:16;1.80;;;0.40;;
57889;SDS011;43707;50.184;18.966;2023-07-20T12:00:43;0.40;;;0.30;;
57889;SDS011;43707;50.184;18.966;2023-07-20T12:03:09;0.30;;;0.30;;
57889;SDS011;43707;50.184;18.966;2023-07-20T12:05:38;0.60;;;0.40;;
57889;SDS011;43707;50.184;18.966;2023-07-20T12:08:04;0.60;;;0.40;;
57889;SDS011;43707;50.184;18.966;2023-07-20T12:10:30;1.70;;;1.00;;
57889;SDS011;43707;50.184;18.966;2023-07-20T12:13:00;0.70;;;0.60;;
57889;SDS011;43707;50.184;18.966;2023-07-20T12:15:28;2.00;;;0.60;;
57889;SDS011;43707;50.184;18.966;2023-07-20T12:17:58;8.60;;;0.70;;
57889;SDS011;43707;50.184;18.966;2023-07-20T12:20:26;2.60;;;0.70;;
57889;SDS011;43707;50.184;18.966;2023-07-20T12:23:01;0.90;;;0.50;;
57889;SDS011;43707;50.184;18.966;2023-07-20T12:25:36;0.60;;;0.50;;
57889;SDS011;43707;50.184;18.966;2023-07-20T12:28:02;2.80;;;0.80;;
57889;SDS011;43707;50.184;18.966;2023-07-20T12:30:30;1.50;;;0.90;;
57889;SDS011;43707;50.184;18.966;2023-07-20T12:32:55;0.90;;;0.70;;
57889;SDS011;43707;50.184;18.966;2023-07-20T12:35:21;1.30;;;0.70;;
57889;SDS011;43707;50.184;18.966;2023-07-20T12:37:46;1.20;;;1.00;;
57889;SDS011;43707;50.184;18.966;2023-07-20T12:40:14;1.20;;;0.80;;
57889;SDS011;43707;50.184;18.966;2023-07-20T12:42:39;0.80;;;0.80;;
57889;SDS011;43707;50.184;18.966;2023-07-20T12:45:05;2.00;;;0.80;;
57889;SDS011;43707;50.184;18.966;2023-07-20T12:47:31;0.50;;;0.50;;
57889;SDS011;43707;50.184;18.966;2023-07-20T12:49:56;0.60;;;0.60;;
57889;SDS011;43707;50.184;18.966;2023-07-20T12:52:22;2.10;;;1.00;;
57889;SDS011;43707;50.184;18.966;2023-07-20T12:54:47;1.40;;;0.80;;
57889;SDS011;43707;50.184;18.966;2023-07-20T12:57:13;1.30;;;0.90;;
57889;SDS011;43707;50.184;18.966;2023-07-20T12:59:38;0.60;;;0.60;;
57889;SDS011;43707;50.184;18.966;2023-07-20T13:02:03;0.60;;;0.60;;
57889;SDS011;43707;50.184;18.966;2023-07-20T13:04:29;2.80;;;0.50;;
57889;SDS011;43707;50.184;18.966;2023-07-20T13:06:55;0.40;;;0.30;;
57889;SDS011;43707;50.184;18.966;2023-07-20T13:09:20;0.90;;;0.40;;
57889;SDS011;43707;50.184;18.966;2023-07-20T13:11:46;0.30;;;0.30;;
57889;SDS011;43707;50.184;18.966;2023-07-20T13:14:11;0.40;;;0.40;;
57889;SDS011;43707;50.184;18.966;2023-07-20T13:16:37;2.30;;;0.60;;
57889;SDS011;43707;50.184;18.966;2023-07-20T13:19:02;1.40;;;0.50;;
57889;SDS011;43707;50.184;18.966;2023-07-20T13:21:27;1.90;;;0.40;;
57889;SDS011;43707;50.184;18.966;2023-07-20T13:23:53;1.40;;;0.40;;
57889;SDS011;43707;50.184;18.966;2023-07-20T13:26:18;0.40;;;0.30;;
57889;SDS011;43707;50.184;18.966;2023-07-20T13:28:44;0.30;;;0.30;;
57889;SDS011;43707;50.184;18.966;2023-07-20T13:31:09;0.30;;;0.30;;
57889;SDS011;43707;50.184;18.966;2023-07-20T13:33:36;0.30;;;0.20;;
57889;SDS011;43707;50.184;18.966;2023-07-20T13:36:01;0.90;;;0.40;;
57889;SDS011;43707;50.184;18.966;2023-07-20T13:38:27;0.90;;;0.50;;
57889;SDS011;43707;50.184;18.966;2023-07-20T13:40:52;1.10;;;0.50;;
57889;SDS011;43707;50.184;18.966;2023-07-20T13:43:18;1.80;;;0.40;;
57889;SDS011;43707;50.184;18.966;2023-07-20T13:45:43;0.30;;;0.30;;
57889;SDS011;43707;50.184;18.966;2023-07-20T13:48:08;0.60;;;0.30;;
57889;SDS011;43707;50.184;18.966;2023-07-20T13:50:34;0.20;;;0.20;;
57889;SDS011;43707;50.184;18.966;2023-07-20T13:52:59;2.20;;;0.30;;
57889;SDS011;43707;50.184;18.966;2023-07-20T13:55:27;1.40;;;0.50;;
57889;SDS011;43707;50.184;18.966;2023-07-20T13:57:53;1.90;;;0.40;;
57889;SDS011;43707;50.184;18.966;2023-07-20T14:00:19;0.60;;;0.30;;
57889;SDS011;43707;50.184;18.966;2023-07-20T14:02:44;0.50;;;0.30;;
57889;SDS011;43707;50.184;18.966;2023-07-20T14:05:09;1.10;;;0.20;;
57889;SDS011;43707;50.184;18.966;2023-07-20T14:07:35;0.50;;;0.30;;
57889;SDS011;43707;50.184;18.966;2023-07-20T14:10:01;0.70;;;0.40;;
57889;SDS011;43707;50.184;18.966;2023-07-20T14:12:26;0.40;;;0.30;;
57889;SDS011;43707;50.184;18.966;2023-07-20T14:14:54;0.20;;;0.20;;
57889;SDS011;43707;50.184;18.966;2023-07-20T14:17:20;0.20;;;0.20;;
57889;SDS011;43707;50.184;18.966;2023-07-20T14:19:46;0.60;;;0.20;;
57889;SDS011;43707;50.184;18.966;2023-07-20T14:22:11;0.30;;;0.20;;
57889;SDS011;43707;50.184;18.966;2023-07-20T14:24:37;0.70;;;0.30;;
57889;SDS011;43707;50.184;18.966;2023-07-20T14:27:04;0.30;;;0.30;;
57889;SDS011;43707;50.184;18.966;2023-07-20T14:29:30;0.40;;;0.30;;
57889;SDS011;43707;50.184;18.966;2023-07-20T14:31:57;0.20;;;0.20;;
57889;SDS011;43707;50.184;18.966;2023-07-20T14:34:23;2.50;;;0.20;;
57889;SDS011;43707;50.184;18.966;2023-07-20T14:36:48;0.90;;;0.20;;
57889;SDS011;43707;50.184;18.966;2023-07-20T14:39:15;0.30;;;0.30;;
57889;SDS011;43707;50.184;18.966;2023-07-20T14:41:40;0.50;;;0.40;;
57889;SDS011;43707;50.184;18.966;2023-07-20T14:44:06;0.50;;;0.20;;
57889;SDS011;43707;50.184;18.966;2023-07-20T14:46:31;1.40;;;0.30;;
57889;SDS011;43707;50.184;18.966;2023-07-20T14:48:57;0.30;;;0.30;;
57889;SDS011;43707;50.184;18.966;2023-07-20T14:51:23;0.30;;;0.30;;